sensor_id;sensor_type;location;lat;lon;timestamp;temperature;humidity
51661;DHT22;37741;49.748;8.490;2023-08-20T00:01:54;27.40;68.40
51661;DHT22;37741;49.748;8.490;2023-08-20T00:04:23;27.40;68.40
51661;DHT22;37741;49.748;8.490;2023-08-20T00:06:51;27.40;68.30
51661;DHT22;37741;49.748;8.490;2023-08-20T00:09:16;27.40;68.20
51661;DHT22;37741;49.748;8.490;2023-08-20T00:11:42;27.40;68.20
51661;DHT22;37741;49.748;8.490;2023-08-20T00:14:08;27.40;68.10
51661;DHT22;37741;49.748;8.490;2023-08-20T00:16:33;27.40;67.90
51661;DHT22;37741;49.748;8.490;2023-08-20T00:19:00;27.40;68.20
51661;DHT22;37741;49.748;8.490;2023-08-20T00:21:26;27.40;68.10
51661;DHT22;37741;49.748;8.490;2023-08-20T00:23:53;27.40;68.00
51661;DHT22;37741;49.748;8.490;2023-08-20T00:26:19;27.40;67.90
51661;DHT22;37741;49.748;8.490;2023-08-20T00:28:45;27.40;67.90
51661;DHT22;37741;49.748;8.490;2023-08-20T00:31:10;27.40;68.00
51661;DHT22;37741;49.748;8.490;2023-08-20T00:33:36;27.30;68.00
51661;DHT22;37741;49.748;8.490;2023-08-20T00:36:02;27.30;68.00
51661;DHT22;37741;49.748;8.490;2023-08-20T00:38:28;27.30;68.00
51661;DHT22;37741;49.748;8.490;2023-08-20T00:40:53;27.30;68.10
51661;DHT22;37741;49.748;8.490;2023-08-20T00:43:19;27.30;68.10
51661;DHT22;37741;49.748;8.490;2023-08-20T00:45:44;27.20;68.20
51661;DHT22;37741;49.748;8.490;2023-08-20T00:48:11;27.20;68.20
51661;DHT22;37741;49.748;8.490;2023-08-20T00:50:37;27.20;68.30
51661;DHT22;37741;49.748;8.490;2023-08-20T00:53:03;27.20;68.20
51661;DHT22;37741;49.748;8.490;2023-08-20T00:55:29;27.20;68.30
51661;DHT22;37741;49.748;8.490;2023-08-20T00:57:55;27.10;68.20
51661;DHT22;37741;49.748;8.490;2023-08-20T01:00:21;27.10;68.30
51661;DHT22;37741;49.748;8.490;2023-08-20T01:02:48;27.00;68.40
51661;DHT22;37741;49.748;8.490;2023-08-20T01:05:14;27.00;68.50
51661;DHT22;37741;49.748;8.490;2023-08-20T01:13:21;26.90;68.70
51661;DHT22;37741;49.748;8.490;2023-08-20T01:15:46;26.80;68.70
51661;DHT22;37741;49.748;8.490;2023-08-20T01:18:12;26.80;68.80
51661;DHT22;37741;49.748;8.490;2023-08-20T01:20:45;26.80;68.90
51661;DHT22;37741;49.748;8.490;2023-08-20T01:23:29;26.80;69.00
51661;DHT22;37741;49.748;8.490;2023-08-20T01:28:45;26.70;69.10
51661;DHT22;37741;49.748;8.490;2023-08-20T01:31:12;26.70;69.10
51661;DHT22;37741;49.748;8.490;2023-08-20T01:33:38;26.70;69.20
51661;DHT22;37741;49.748;8.490;2023-08-20T01:36:07;26.60;69.20
51661;DHT22;37741;49.748;8.490;2023-08-20T01:38:35;26.60;69.30
51661;DHT22;37741;49.748;8.490;2023-08-20T01:41:01;26.60;69.40
51661;DHT22;37741;49.748;8.490;2023-08-20T01:43:27;26.50;69.40
51661;DHT22;37741;49.748;8.490;2023-08-20T01:45:53;26.50;69.40
51661;DHT22;37741;49.748;8.490;2023-08-20T01:48:18;26.50;69.50
51661;DHT22;37741;49.748;8.490;2023-08-20T01:50:44;26.50;69.60
51661;DHT22;37741;49.748;8.490;2023-08-20T01:53:11;26.50;69.60
51661;DHT22;37741;49.748;8.490;2023-08-20T01:55:37;26.40;69.60
51661;DHT22;37741;49.748;8.490;2023-08-20T01:58:02;26.40;69.60
51661;DHT22;37741;49.748;8.490;2023-08-20T02:00:28;26.40;69.70
51661;DHT22;37741;49.748;8.490;2023-08-20T02:02:56;26.40;69.70
51661;DHT22;37741;49.748;8.490;2023-08-20T02:05:21;26.40;69.70
51661;DHT22;37741;49.748;8.490;2023-08-20T02:07:47;26.30;69.70
51661;DHT22;37741;49.748;8.490;2023-08-20T02:10:12;26.30;69.80
51661;DHT22;37741;49.748;8.490;2023-08-20T02:12:39;26.30;69.90
51661;DHT22;37741;49.748;8.490;2023-08-20T02:15:05;26.30;70.10
51661;DHT22;37741;49.748;8.490;2023-08-20T02:17:31;26.30;70.00
51661;DHT22;37741;49.748;8.490;2023-08-20T02:19:56;26.30;70.00
51661;DHT22;37741;49.748;8.490;2023-08-20T02:22:22;26.30;70.00
51661;DHT22;37741;49.748;8.490;2023-08-20T02:24:48;26.30;70.10
51661;DHT22;37741;49.748;8.490;2023-08-20T02:27:13;26.30;70.00
51661;DHT22;37741;49.748;8.490;2023-08-20T02:29:39;26.30;70.10
51661;DHT22;37741;49.748;8.490;2023-08-20T02:32:04;26.30;70.00
51661;DHT22;37741;49.748;8.490;2023-08-20T02:34:30;26.30;69.80
51661;DHT22;37741;49.748;8.490;2023-08-20T02:36:56;26.30;69.80
51661;DHT22;37741;49.748;8.490;2023-08-20T02:39:21;26.30;69.80
51661;DHT22;37741;49.748;8.490;2023-08-20T02:41:47;26.30;69.80
51661;DHT22;37741;49.748;8.490;2023-08-20T02:44:12;26.30;69.90
51661;DHT22;37741;49.748;8.490;2023-08-20T02:46:38;26.20;69.90
51661;DHT22;37741;49.748;8.490;2023-08-20T02:49:06;26.20;69.90
51661;DHT22;37741;49.748;8.490;2023-08-20T02:51:31;26.20;69.90
51661;DHT22;37741;49.748;8.490;2023-08-20T02:53:57;26.20;70.00
51661;DHT22;37741;49.748;8.490;2023-08-20T02:56:22;26.10;70.00
51661;DHT22;37741;49.748;8.490;2023-08-20T02:58:48;26.10;70.10
51661;DHT22;37741;49.748;8.490;2023-08-20T03:01:25;26.10;70.20
51661;DHT22;37741;49.748;8.490;2023-08-20T03:03:51;26.10;70.30
51661;DHT22;37741;49.748;8.490;2023-08-20T03:06:16;26.10;70.30
51661;DHT22;37741;49.748;8.490;2023-08-20T03:08:42;26.00;70.90
51661;DHT22;37741;49.748;8.490;2023-08-20T03:11:08;26.00;70.40
51661;DHT22;37741;49.748;8.490;2023-08-20T03:13:33;26.00;70.40
51661;DHT22;37741;49.748;8.490;2023-08-20T03:15:59;26.00;70.40
51661;DHT22;37741;49.748;8.490;2023-08-20T03:18:25;25.90;70.50
51661;DHT22;37741;49.748;8.490;2023-08-20T03:20:50;25.90;70.60
51661;DHT22;37741;49.748;8.490;2023-08-20T03:23:16;25.80;70.60
51661;DHT22;37741;49.748;8.490;2023-08-20T03:25:41;25.80;70.80
51661;DHT22;37741;49.748;8.490;2023-08-20T03:28:07;25.80;70.80
51661;DHT22;37741;49.748;8.490;2023-08-20T03:30:32;25.70;70.90
51661;DHT22;37741;49.748;8.490;2023-08-20T03:32:59;25.70;71.00
51661;DHT22;37741;49.748;8.490;2023-08-20T03:35:24;25.60;71.00
51661;DHT22;37741;49.748;8.490;2023-08-20T03:37:50;25.60;71.10
51661;DHT22;37741;49.748;8.490;2023-08-20T03:40:16;25.60;71.30
51661;DHT22;37741;49.748;8.490;2023-08-20T03:42:43;25.50;71.30
51661;DHT22;37741;49.748;8.490;2023-08-20T03:45:09;25.50;71.30
51661;DHT22;37741;49.748;8.490;2023-08-20T03:47:34;25.50;71.40
51661;DHT22;37741;49.748;8.490;2023-08-20T03:50:02;25.40;71.50
51661;DHT22;37741;49.748;8.490;2023-08-20T03:52:28;25.40;71.50
51661;DHT22;37741;49.748;8.490;2023-08-20T03:54:53;25.40;71.60
51661;DHT22;37741;49.748;8.490;2023-08-20T03:57:19;25.40;71.60
51661;DHT22;37741;49.748;8.490;2023-08-20T03:59:44;25.30;71.60
51661;DHT22;37741;49.748;8.490;2023-08-20T04:02:11;25.30;71.60
51661;DHT22;37741;49.748;8.490;2023-08-20T04:04:36;25.30;71.70
51661;DHT22;37741;49.748;8.490;2023-08-20T04:07:02;25.30;71.80
51661;DHT22;37741;49.748;8.490;2023-08-20T04:09:28;25.30;71.70
51661;DHT22;37741;49.748;8.490;2023-08-20T04:11:54;25.20;71.70
51661;DHT22;37741;49.748;8.490;2023-08-20T04:14:19;25.20;71.90
51661;DHT22;37741;49.748;8.490;2023-08-20T04:16:45;25.20;72.00
51661;DHT22;37741;49.748;8.490;2023-08-20T04:19:11;25.10;72.00
51661;DHT22;37741;49.748;8.490;2023-08-20T04:21:36;25.10;72.00
51661;DHT22;37741;49.748;8.490;2023-08-20T04:24:02;25.10;72.10
51661;DHT22;37741;49.748;8.490;2023-08-20T04:26:28;25.10;72.20
51661;DHT22;37741;49.748;8.490;2023-08-20T04:28:53;25.00;72.20
51661;DHT22;37741;49.748;8.490;2023-08-20T04:31:19;25.00;72.30
51661;DHT22;37741;49.748;8.490;2023-08-20T04:33:45;25.00;72.30
51661;DHT22;37741;49.748;8.490;2023-08-20T04:36:11;25.00;72.50
51661;DHT22;37741;49.748;8.490;2023-08-20T04:38:36;25.00;72.60
51661;DHT22;37741;49.748;8.490;2023-08-20T04:41:02;25.00;72.60
51661;DHT22;37741;49.748;8.490;2023-08-20T04:43:28;25.00;72.60
51661;DHT22;37741;49.748;8.490;2023-08-20T04:45:53;25.00;72.80
51661;DHT22;37741;49.748;8.490;2023-08-20T04:48:19;25.00;72.80
51661;DHT22;37741;49.748;8.490;2023-08-20T04:50:44;25.00;72.90
51661;DHT22;37741;49.748;8.490;2023-08-20T04:53:10;25.00;72.80
51661;DHT22;37741;49.748;8.490;2023-08-20T04:55:35;25.00;72.80
51661;DHT22;37741;49.748;8.490;2023-08-20T04:58:01;25.00;72.80
51661;DHT22;37741;49.748;8.490;2023-08-20T05:00:27;25.00;72.50
51661;DHT22;37741;49.748;8.490;2023-08-20T05:02:54;25.00;72.50
51661;DHT22;37741;49.748;8.490;2023-08-20T05:05:21;25.00;72.70
51661;DHT22;37741;49.748;8.490;2023-08-20T05:07:47;25.00;72.60
51661;DHT22;37741;49.748;8.490;2023-08-20T05:10:12;25.00;72.60
51661;DHT22;37741;49.748;8.490;2023-08-20T05:12:38;25.00;72.70
51661;DHT22;37741;49.748;8.490;2023-08-20T05:15:04;25.00;72.70
51661;DHT22;37741;49.748;8.490;2023-08-20T05:17:30;25.00;72.80
51661;DHT22;37741;49.748;8.490;2023-08-20T05:19:55;25.00;72.90
51661;DHT22;37741;49.748;8.490;2023-08-20T05:22:21;25.00;72.90
51661;DHT22;37741;49.748;8.490;2023-08-20T05:24:46;25.00;73.10
51661;DHT22;37741;49.748;8.490;2023-08-20T05:27:15;25.00;73.00
51661;DHT22;37741;49.748;8.490;2023-08-20T05:29:42;25.00;73.00
51661;DHT22;37741;49.748;8.490;2023-08-20T05:32:08;25.00;72.90
51661;DHT22;37741;49.748;8.490;2023-08-20T05:34:34;25.00;72.90
51661;DHT22;37741;49.748;8.490;2023-08-20T05:37:00;24.90;73.40
51661;DHT22;37741;49.748;8.490;2023-08-20T05:39:26;24.90;73.20
51661;DHT22;37741;49.748;8.490;2023-08-20T05:41:52;24.90;73.20
51661;DHT22;37741;49.748;8.490;2023-08-20T05:44:18;24.90;73.70
51661;DHT22;37741;49.748;8.490;2023-08-20T05:46:44;24.80;73.60
51661;DHT22;37741;49.748;8.490;2023-08-20T05:49:09;24.80;73.70
51661;DHT22;37741;49.748;8.490;2023-08-20T05:51:35;24.80;73.70
51661;DHT22;37741;49.748;8.490;2023-08-20T05:54:01;24.80;73.90
51661;DHT22;37741;49.748;8.490;2023-08-20T05:56:26;24.70;73.80
51661;DHT22;37741;49.748;8.490;2023-08-20T05:58:52;24.80;74.00
51661;DHT22;37741;49.748;8.490;2023-08-20T06:01:17;24.80;74.10
51661;DHT22;37741;49.748;8.490;2023-08-20T06:03:43;24.80;74.30
51661;DHT22;37741;49.748;8.490;2023-08-20T06:06:08;24.80;74.50
51661;DHT22;37741;49.748;8.490;2023-08-20T06:08:34;24.80;74.50
51661;DHT22;37741;49.748;8.490;2023-08-20T06:10:59;24.80;75.00
51661;DHT22;37741;49.748;8.490;2023-08-20T06:13:25;24.80;74.30
51661;DHT22;37741;49.748;8.490;2023-08-20T06:15:51;24.80;74.20
51661;DHT22;37741;49.748;8.490;2023-08-20T06:18:16;24.80;74.30
51661;DHT22;37741;49.748;8.490;2023-08-20T06:20:42;24.80;74.20
51661;DHT22;37741;49.748;8.490;2023-08-20T06:23:07;24.80;74.20
51661;DHT22;37741;49.748;8.490;2023-08-20T06:25:33;24.90;74.20
51661;DHT22;37741;49.748;8.490;2023-08-20T06:27:58;24.90;74.20
51661;DHT22;37741;49.748;8.490;2023-08-20T06:30:24;24.90;74.10
51661;DHT22;37741;49.748;8.490;2023-08-20T06:32:50;24.90;74.20
51661;DHT22;37741;49.748;8.490;2023-08-20T06:35:15;24.90;74.20
51661;DHT22;37741;49.748;8.490;2023-08-20T06:37:41;24.90;74.70
51661;DHT22;37741;49.748;8.490;2023-08-20T06:40:07;24.90;74.30
51661;DHT22;37741;49.748;8.490;2023-08-20T06:42:33;24.90;74.10
51661;DHT22;37741;49.748;8.490;2023-08-20T06:44:59;24.90;74.10
51661;DHT22;37741;49.748;8.490;2023-08-20T06:47:25;25.00;74.20
51661;DHT22;37741;49.748;8.490;2023-08-20T06:49:50;25.00;74.40
51661;DHT22;37741;49.748;8.490;2023-08-20T06:52:16;25.00;74.30
51661;DHT22;37741;49.748;8.490;2023-08-20T06:54:42;25.00;74.40
51661;DHT22;37741;49.748;8.490;2023-08-20T06:57:08;25.00;74.40
51661;DHT22;37741;49.748;8.490;2023-08-20T06:59:33;25.00;74.20
51661;DHT22;37741;49.748;8.490;2023-08-20T07:01:59;25.00;74.20
51661;DHT22;37741;49.748;8.490;2023-08-20T07:04:25;25.00;74.30
51661;DHT22;37741;49.748;8.490;2023-08-20T07:06:51;25.00;74.20
51661;DHT22;37741;49.748;8.490;2023-08-20T07:09:16;25.00;74.20
51661;DHT22;37741;49.748;8.490;2023-08-20T07:11:42;25.00;74.30
51661;DHT22;37741;49.748;8.490;2023-08-20T07:14:08;25.00;74.20
51661;DHT22;37741;49.748;8.490;2023-08-20T07:16:33;25.00;74.30
51661;DHT22;37741;49.748;8.490;2023-08-20T07:18:59;25.00;74.40
51661;DHT22;37741;49.748;8.490;2023-08-20T07:21:25;25.00;74.40
51661;DHT22;37741;49.748;8.490;2023-08-20T07:23:50;25.10;74.40
51661;DHT22;37741;49.748;8.490;2023-08-20T07:26:16;25.10;74.40
51661;DHT22;37741;49.748;8.490;2023-08-20T07:28:42;25.20;74.30
51661;DHT22;37741;49.748;8.490;2023-08-20T07:31:30;25.20;74.30
51661;DHT22;37741;49.748;8.490;2023-08-20T07:33:56;25.20;74.30
51661;DHT22;37741;49.748;8.490;2023-08-20T07:36:23;25.30;74.40
51661;DHT22;37741;49.748;8.490;2023-08-20T07:38:50;25.20;74.20
51661;DHT22;37741;49.748;8.490;2023-08-20T07:41:15;25.30;74.20
51661;DHT22;37741;49.748;8.490;2023-08-20T07:43:44;25.30;74.00
51661;DHT22;37741;49.748;8.490;2023-08-20T07:46:09;25.30;74.10
51661;DHT22;37741;49.748;8.490;2023-08-20T07:48:35;25.30;74.30
51661;DHT22;37741;49.748;8.490;2023-08-20T07:51:02;25.30;74.10
51661;DHT22;37741;49.748;8.490;2023-08-20T07:53:28;25.30;74.20
51661;DHT22;37741;49.748;8.490;2023-08-20T07:55:54;25.30;74.10
51661;DHT22;37741;49.748;8.490;2023-08-20T07:58:20;25.30;74.30
51661;DHT22;37741;49.748;8.490;2023-08-20T08:00:46;25.30;74.20
51661;DHT22;37741;49.748;8.490;2023-08-20T08:03:11;25.30;74.30
51661;DHT22;37741;49.748;8.490;2023-08-20T08:05:49;25.30;74.40
51661;DHT22;37741;49.748;8.490;2023-08-20T08:08:18;25.30;74.30
51661;DHT22;37741;49.748;8.490;2023-08-20T08:10:45;25.30;74.30
51661;DHT22;37741;49.748;8.490;2023-08-20T08:13:15;25.30;74.70
51661;DHT22;37741;49.748;8.490;2023-08-20T08:15:41;25.20;74.90
51661;DHT22;37741;49.748;8.490;2023-08-20T08:18:07;25.30;75.00
51661;DHT22;37741;49.748;8.490;2023-08-20T08:20:34;25.20;75.90
51661;DHT22;37741;49.748;8.490;2023-08-20T08:23:00;25.20;75.40
51661;DHT22;37741;49.748;8.490;2023-08-20T08:25:26;25.20;75.60
51661;DHT22;37741;49.748;8.490;2023-08-20T08:27:52;25.20;75.70
51661;DHT22;37741;49.748;8.490;2023-08-20T08:30:17;25.20;75.70
51661;DHT22;37741;49.748;8.490;2023-08-20T08:32:43;25.20;75.70
51661;DHT22;37741;49.748;8.490;2023-08-20T08:35:09;25.10;75.60
51661;DHT22;37741;49.748;8.490;2023-08-20T08:37:34;25.20;75.80
51661;DHT22;37741;49.748;8.490;2023-08-20T08:40:01;25.20;75.70
51661;DHT22;37741;49.748;8.490;2023-08-20T08:42:29;25.10;75.70
51661;DHT22;37741;49.748;8.490;2023-08-20T08:44:55;25.10;75.70
51661;DHT22;37741;49.748;8.490;2023-08-20T08:47:22;25.10;75.70
51661;DHT22;37741;49.748;8.490;2023-08-20T08:49:48;25.10;75.80
51661;DHT22;37741;49.748;8.490;2023-08-20T08:52:17;25.10;75.80
51661;DHT22;37741;49.748;8.490;2023-08-20T08:54:46;25.10;75.80
51661;DHT22;37741;49.748;8.490;2023-08-20T08:57:12;25.10;75.70
51661;DHT22;37741;49.748;8.490;2023-08-20T08:59:38;25.10;75.90
51661;DHT22;37741;49.748;8.490;2023-08-20T09:02:08;25.10;75.90
51661;DHT22;37741;49.748;8.490;2023-08-20T09:04:38;25.10;75.90
51661;DHT22;37741;49.748;8.490;2023-08-20T09:07:04;25.20;75.90
51661;DHT22;37741;49.748;8.490;2023-08-20T09:09:30;25.20;75.90
51661;DHT22;37741;49.748;8.490;2023-08-20T09:11:56;25.10;76.00
51661;DHT22;37741;49.748;8.490;2023-08-20T09:14:24;25.10;75.90
51661;DHT22;37741;49.748;8.490;2023-08-20T09:17:01;25.10;75.90
51661;DHT22;37741;49.748;8.490;2023-08-20T09:19:35;25.20;76.20
51661;DHT22;37741;49.748;8.490;2023-08-20T09:22:00;25.20;76.10
51661;DHT22;37741;49.748;8.490;2023-08-20T09:24:54;25.20;75.90
51661;DHT22;37741;49.748;8.490;2023-08-20T09:27:18;25.20;76.00
51661;DHT22;37741;49.748;8.490;2023-08-20T09:32:17;25.20;75.90
51661;DHT22;37741;49.748;8.490;2023-08-20T09:34:43;25.30;76.00
51661;DHT22;37741;49.748;8.490;2023-08-20T09:37:13;25.30;75.90
51661;DHT22;37741;49.748;8.490;2023-08-20T09:39:39;25.30;75.90
51661;DHT22;37741;49.748;8.490;2023-08-20T09:42:11;25.40;75.70
51661;DHT22;37741;49.748;8.490;2023-08-20T09:44:39;25.40;75.50
51661;DHT22;37741;49.748;8.490;2023-08-20T09:47:14;25.50;75.80
51661;DHT22;37741;49.748;8.490;2023-08-20T09:49:45;25.60;75.40
51661;DHT22;37741;49.748;8.490;2023-08-20T09:52:55;25.60;75.10
51661;DHT22;37741;49.748;8.490;2023-08-20T09:55:14;25.60;75.00
51661;DHT22;37741;49.748;8.490;2023-08-20T09:57:41;25.70;74.90
51661;DHT22;37741;49.748;8.490;2023-08-20T10:00:09;25.70;74.80
51661;DHT22;37741;49.748;8.490;2023-08-20T10:02:38;25.70;74.60
51661;DHT22;37741;49.748;8.490;2023-08-20T10:05:10;25.80;74.40
51661;DHT22;37741;49.748;8.490;2023-08-20T10:07:36;25.80;74.20
51661;DHT22;37741;49.748;8.490;2023-08-20T10:10:12;25.80;74.30
51661;DHT22;37741;49.748;8.490;2023-08-20T10:12:39;25.90;74.00
51661;DHT22;37741;49.748;8.490;2023-08-20T10:15:07;25.90;74.10
51661;DHT22;37741;49.748;8.490;2023-08-20T10:17:34;25.90;73.80
51661;DHT22;37741;49.748;8.490;2023-08-20T10:20:01;26.00;73.80
51661;DHT22;37741;49.748;8.490;2023-08-20T10:22:41;26.00;73.70
51661;DHT22;37741;49.748;8.490;2023-08-20T10:25:08;26.00;73.50
51661;DHT22;37741;49.748;8.490;2023-08-20T10:27:39;26.00;73.40
51661;DHT22;37741;49.748;8.490;2023-08-20T10:30:17;26.00;73.20
51661;DHT22;37741;49.748;8.490;2023-08-20T10:32:45;26.10;73.50
51661;DHT22;37741;49.748;8.490;2023-08-20T10:35:27;26.20;73.40
51661;DHT22;37741;49.748;8.490;2023-08-20T10:38:07;26.10;73.00
51661;DHT22;37741;49.748;8.490;2023-08-20T10:40:55;26.10;72.80
51661;DHT22;37741;49.748;8.490;2023-08-20T10:43:37;26.20;72.90
51661;DHT22;37741;49.748;8.490;2023-08-20T10:46:19;26.20;72.90
51661;DHT22;37741;49.748;8.490;2023-08-20T10:51:34;26.10;72.10
51661;DHT22;37741;49.748;8.490;2023-08-20T11:02:03;26.10;72.50
51661;DHT22;37741;49.748;8.490;2023-08-20T11:04:32;26.10;72.70
51661;DHT22;37741;49.748;8.490;2023-08-20T11:06:59;26.10;73.00
51661;DHT22;37741;49.748;8.490;2023-08-20T11:09:26;26.10;72.90
51661;DHT22;37741;49.748;8.490;2023-08-20T11:11:52;26.20;72.70
51661;DHT22;37741;49.748;8.490;2023-08-20T11:14:20;26.20;72.60
51661;DHT22;37741;49.748;8.490;2023-08-20T11:16:47;26.20;72.80
51661;DHT22;37741;49.748;8.490;2023-08-20T11:19:14;26.30;72.20
51661;DHT22;37741;49.748;8.490;2023-08-20T11:21:41;26.30;72.20
51661;DHT22;37741;49.748;8.490;2023-08-20T11:24:08;26.30;72.40
51661;DHT22;37741;49.748;8.490;2023-08-20T11:26:34;26.40;72.40
51661;DHT22;37741;49.748;8.490;2023-08-20T11:29:01;26.40;72.10
51661;DHT22;37741;49.748;8.490;2023-08-20T11:31:30;26.40;72.10
51661;DHT22;37741;49.748;8.490;2023-08-20T11:33:57;26.40;72.00
51661;DHT22;37741;49.748;8.490;2023-08-20T11:36:23;26.40;71.90
51661;DHT22;37741;49.748;8.490;2023-08-20T11:38:53;26.40;71.80
51661;DHT22;37741;49.748;8.490;2023-08-20T11:41:20;26.40;71.70
51661;DHT22;37741;49.748;8.490;2023-08-20T11:43:47;26.50;71.70
51661;DHT22;37741;49.748;8.490;2023-08-20T11:46:14;26.50;71.60
51661;DHT22;37741;49.748;8.490;2023-08-20T11:49:00;26.50;71.60
51661;DHT22;37741;49.748;8.490;2023-08-20T11:51:26;26.50;71.10
51661;DHT22;37741;49.748;8.490;2023-08-20T11:53:52;26.60;71.00
51661;DHT22;37741;49.748;8.490;2023-08-20T11:56:18;26.70;70.90
51661;DHT22;37741;49.748;8.490;2023-08-20T11:58:59;26.70;70.80
51661;DHT22;37741;49.748;8.490;2023-08-20T12:01:25;26.80;70.00
51661;DHT22;37741;49.748;8.490;2023-08-20T12:03:50;26.90;70.10
51661;DHT22;37741;49.748;8.490;2023-08-20T12:06:20;27.00;69.70
51661;DHT22;37741;49.748;8.490;2023-08-20T12:08:48;27.00;69.80
51661;DHT22;37741;49.748;8.490;2023-08-20T12:11:13;27.10;69.30
51661;DHT22;37741;49.748;8.490;2023-08-20T12:13:40;27.10;69.40
51661;DHT22;37741;49.748;8.490;2023-08-20T12:16:06;27.20;69.50
51661;DHT22;37741;49.748;8.490;2023-08-20T12:18:32;27.20;69.40
51661;DHT22;37741;49.748;8.490;2023-08-20T12:20:58;27.30;68.90
51661;DHT22;37741;49.748;8.490;2023-08-20T12:23:23;27.30;69.10
51661;DHT22;37741;49.748;8.490;2023-08-20T12:25:52;27.40;68.50
51661;DHT22;37741;49.748;8.490;2023-08-20T12:28:18;27.40;68.40
51661;DHT22;37741;49.748;8.490;2023-08-20T12:30:44;27.50;67.80
51661;DHT22;37741;49.748;8.490;2023-08-20T12:33:11;27.60;67.50
51661;DHT22;37741;49.748;8.490;2023-08-20T12:35:36;27.70;67.00
51661;DHT22;37741;49.748;8.490;2023-08-20T12:38:02;27.80;66.50
51661;DHT22;37741;49.748;8.490;2023-08-20T12:40:29;27.80;66.80
51661;DHT22;37741;49.748;8.490;2023-08-20T12:42:54;27.90;65.00
51661;DHT22;37741;49.748;8.490;2023-08-20T12:45:22;28.00;65.50
51661;DHT22;37741;49.748;8.490;2023-08-20T12:47:48;28.10;65.30
51661;DHT22;37741;49.748;8.490;2023-08-20T12:50:14;28.20;64.70
51661;DHT22;37741;49.748;8.490;2023-08-20T12:52:40;28.20;64.40
51661;DHT22;37741;49.748;8.490;2023-08-20T12:55:06;28.30;64.20
51661;DHT22;37741;49.748;8.490;2023-08-20T12:57:34;28.30;64.70
51661;DHT22;37741;49.748;8.490;2023-08-20T13:00:00;28.30;64.20
51661;DHT22;37741;49.748;8.490;2023-08-20T13:02:46;28.40;63.60
51661;DHT22;37741;49.748;8.490;2023-08-20T13:05:12;28.40;63.60
51661;DHT22;37741;49.748;8.490;2023-08-20T13:07:38;28.40;63.60
51661;DHT22;37741;49.748;8.490;2023-08-20T13:10:05;28.50;63.70
51661;DHT22;37741;49.748;8.490;2023-08-20T13:12:32;28.50;63.60
51661;DHT22;37741;49.748;8.490;2023-08-20T13:14:59;28.50;63.90
51661;DHT22;37741;49.748;8.490;2023-08-20T13:17:26;28.60;63.90
51661;DHT22;37741;49.748;8.490;2023-08-20T13:19:52;28.60;62.20
51661;DHT22;37741;49.748;8.490;2023-08-20T13:22:20;28.70;61.80
51661;DHT22;37741;49.748;8.490;2023-08-20T13:24:46;28.80;61.70
51661;DHT22;37741;49.748;8.490;2023-08-20T13:27:13;28.90;63.00
51661;DHT22;37741;49.748;8.490;2023-08-20T13:29:40;29.00;62.40
51661;DHT22;37741;49.748;8.490;2023-08-20T13:32:06;29.00;62.80
51661;DHT22;37741;49.748;8.490;2023-08-20T13:34:35;29.00;62.80
51661;DHT22;37741;49.748;8.490;2023-08-20T13:37:01;29.00;62.20
51661;DHT22;37741;49.748;8.490;2023-08-20T13:39:26;29.10;61.10
51661;DHT22;37741;49.748;8.490;2023-08-20T13:41:57;29.20;60.30
51661;DHT22;37741;49.748;8.490;2023-08-20T13:44:23;29.30;59.70
51661;DHT22;37741;49.748;8.490;2023-08-20T13:46:48;29.30;60.60
51661;DHT22;37741;49.748;8.490;2023-08-20T13:49:14;29.40;60.80
51661;DHT22;37741;49.748;8.490;2023-08-20T13:51:39;29.40;60.80
51661;DHT22;37741;49.748;8.490;2023-08-20T13:54:05;29.50;60.30
51661;DHT22;37741;49.748;8.490;2023-08-20T13:56:31;29.60;60.60
51661;DHT22;37741;49.748;8.490;2023-08-20T13:58:56;29.60;59.30
51661;DHT22;37741;49.748;8.490;2023-08-20T14:01:22;29.70;57.80
51661;DHT22;37741;49.748;8.490;2023-08-20T14:03:48;29.80;57.90
51661;DHT22;37741;49.748;8.490;2023-08-20T14:06:14;30.00;57.40
51661;DHT22;37741;49.748;8.490;2023-08-20T14:08:42;30.10;57.50
51661;DHT22;37741;49.748;8.490;2023-08-20T14:11:09;30.20;57.20
51661;DHT22;37741;49.748;8.490;2023-08-20T14:13:34;30.30;57.00
51661;DHT22;37741;49.748;8.490;2023-08-20T14:16:00;30.50;57.30
51661;DHT22;37741;49.748;8.490;2023-08-20T14:18:26;30.60;57.60
51661;DHT22;37741;49.748;8.490;2023-08-20T14:20:52;30.60;57.60
51661;DHT22;37741;49.748;8.490;2023-08-20T14:23:17;30.80;57.30
51661;DHT22;37741;49.748;8.490;2023-08-20T14:26:05;30.90;57.00
51661;DHT22;37741;49.748;8.490;2023-08-20T14:28:37;31.00;56.70
51661;DHT22;37741;49.748;8.490;2023-08-20T14:31:08;31.10;56.90
51661;DHT22;37741;49.748;8.490;2023-08-20T14:33:40;31.30;56.50
51661;DHT22;37741;49.748;8.490;2023-08-20T14:36:09;31.40;56.40
51661;DHT22;37741;49.748;8.490;2023-08-20T14:38:37;31.50;56.30
51661;DHT22;37741;49.748;8.490;2023-08-20T14:41:15;31.60;56.00
51661;DHT22;37741;49.748;8.490;2023-08-20T14:43:41;31.70;56.10
51661;DHT22;37741;49.748;8.490;2023-08-20T14:46:16;31.80;56.00
51661;DHT22;37741;49.748;8.490;2023-08-20T14:48:51;31.80;55.80
51661;DHT22;37741;49.748;8.490;2023-08-20T14:51:55;31.90;55.00
51661;DHT22;37741;49.748;8.490;2023-08-20T14:54:44;32.00;55.40
51661;DHT22;37741;49.748;8.490;2023-08-20T15:00:46;32.20;55.20
51661;DHT22;37741;49.748;8.490;2023-08-20T15:03:16;32.20;55.50
51661;DHT22;37741;49.748;8.490;2023-08-20T15:09:04;32.30;54.70
51661;DHT22;37741;49.748;8.490;2023-08-20T15:11:41;32.30;54.60
51661;DHT22;37741;49.748;8.490;2023-08-20T15:14:08;32.40;54.50
51661;DHT22;37741;49.748;8.490;2023-08-20T15:16:36;32.40;55.10
51661;DHT22;37741;49.748;8.490;2023-08-20T15:19:01;32.40;53.30
51661;DHT22;37741;49.748;8.490;2023-08-20T15:21:28;32.40;54.40
51661;DHT22;37741;49.748;8.490;2023-08-20T15:23:53;32.40;53.00
51661;DHT22;37741;49.748;8.490;2023-08-20T15:26:19;32.40;54.10
51661;DHT22;37741;49.748;8.490;2023-08-20T15:28:45;32.50;53.30
51661;DHT22;37741;49.748;8.490;2023-08-20T15:31:11;32.60;54.10
51661;DHT22;37741;49.748;8.490;2023-08-20T15:33:36;32.60;53.20
51661;DHT22;37741;49.748;8.490;2023-08-20T15:36:02;32.60;53.70
51661;DHT22;37741;49.748;8.490;2023-08-20T15:38:28;32.60;54.30
51661;DHT22;37741;49.748;8.490;2023-08-20T15:40:54;32.70;53.50
51661;DHT22;37741;49.748;8.490;2023-08-20T15:43:20;32.70;53.40
51661;DHT22;37741;49.748;8.490;2023-08-20T15:45:47;32.70;53.00
51661;DHT22;37741;49.748;8.490;2023-08-20T15:48:12;32.80;53.10
51661;DHT22;37741;49.748;8.490;2023-08-20T15:50:38;32.80;52.90
51661;DHT22;37741;49.748;8.490;2023-08-20T15:53:04;32.90;53.90
51661;DHT22;37741;49.748;8.490;2023-08-20T15:55:29;32.90;53.50
51661;DHT22;37741;49.748;8.490;2023-08-20T15:57:55;33.00;53.00
51661;DHT22;37741;49.748;8.490;2023-08-20T16:00:21;33.00;53.00